Time;durP1;ratioP1;P1;durP2;ratioP2;P2;SDS_P1;SDS_P2;PMS_P1;PMS_P2;Temp;Humidity;BMP_temperature;BMP_pressure;BME280_temperature;BME280_humidity;BME280_pressure;Samples;Min_cycle;Max_cycle;Signal;HPM_P1;HPM_P2
2022/11/19 00:01:29;;;;;;;21.77;16.37;;;;;;;-0.34;100.00;98802.75;1823406;78;21096;-79
2022/11/19 00:03:55;;;;;;;17.53;14.00;;;;;;;-0.29;100.00;98792.90;1823386;78;21011;-78
2022/11/19 00:06:25;;;;;;;20.80;14.80;;;;;;;-0.24;100.00;98797.07;1823389;78;21570;-77
2022/11/19 00:08:52;;;;;;;21.20;13.23;;;;;;;-0.23;100.00;98796.03;1823368;78;20955;-76
2022/11/19 00:14:11;;;;;;;21.23;15.80;;;;;;;-0.20;100.00;98786.40;1823660;78;21402;-74
2022/11/19 00:16:40;;;;;;;19.33;14.20;;;;;;;-0.22;100.00;98777.34;1823222;78;21004;-76
2022/11/19 00:19:11;;;;;;;19.50;14.70;;;;;;;-0.23;100.00;98764.33;1823471;78;20944;-75
2022/11/19 00:21:41;;;;;;;18.10;13.37;;;;;;;-0.25;100.00;98763.73;1823376;78;21045;-76
2022/11/19 00:24:09;;;;;;;18.47;14.67;;;;;;;-0.24;100.00;98764.83;1823085;78;21043;-77
2022/11/19 00:26:35;;;;;;;19.77;14.97;;;;;;;-0.22;100.00;98744.83;1823430;78;21185;-76
2022/11/19 00:29:02;;;;;;;18.03;13.10;;;;;;;-0.16;100.00;98749.30;1823384;78;21503;-75
2022/11/19 00:31:29;;;;;;;17.73;13.47;;;;;;;-0.11;100.00;98748.18;1823336;78;21556;-74
2022/11/19 00:33:56;;;;;;;18.53;15.70;;;;;;;-0.13;100.00;98745.73;1768220;78;20920;-76
2022/11/19 00:36:22;;;;;;;15.33;12.47;;;;;;;-0.20;100.00;98739.66;1823815;78;20993;-79
2022/11/19 00:38:49;;;;;;;16.10;13.73;;;;;;;-0.19;100.00;98733.33;1823328;78;21037;-79
2022/11/19 00:41:16;;;;;;;18.10;13.77;;;;;;;-0.14;100.00;98730.08;1823535;78;20995;-76
2022/11/19 00:43:46;;;;;;;17.48;13.08;;;;;;;-0.15;100.00;98713.94;1823750;78;20981;-75
2022/11/19 00:46:28;;;;;;;14.53;12.30;;;;;;;-0.16;100.00;98713.63;1835698;77;20950;-69
2022/11/19 00:48:57;;;;;;;20.62;13.08;;;;;;;-0.13;100.00;98698.67;1854480;77;21585;-64
2022/11/19 00:51:27;;;;;;;14.97;12.63;;;;;;;-0.08;100.00;98683.02;1856476;77;21312;-64
2022/11/19 00:53:54;;;;;;;11.97;10.60;;;;;;;-0.08;100.00;98681.19;1828646;77;22198;-63
2022/11/19 00:56:23;;;;;;;14.10;12.17;;;;;;;-0.14;100.00;98678.05;1851503;77;21043;-64
2022/11/19 00:58:50;;;;;;;14.67;12.13;;;;;;;-0.15;100.00;98675.13;1857935;77;21044;-63
2022/11/19 01:01:18;;;;;;;9.37;8.10;;;;;;;-0.10;100.00;98668.72;1854390;77;20951;-63
2022/11/19 01:03:46;;;;;;;13.77;11.60;;;;;;;-0.12;100.00;98673.38;1855167;77;21195;-63
2022/11/19 01:06:14;;;;;;;12.27;10.97;;;;;;;-0.11;100.00;98667.59;1856149;77;21005;-63
2022/11/19 01:08:42;;;;;;;13.53;11.17;;;;;;;-0.06;100.00;98670.42;1858853;77;21557;-63
2022/11/19 01:11:12;;;;;;;9.33;8.27;;;;;;;-0.01;100.00;98675.91;1850581;77;20969;-62
2022/11/19 01:13:39;;;;;;;11.50;9.00;;;;;;;-0.02;100.00;98670.31;1847105;77;20939;-62
2022/11/19 01:16:14;;;;;;;10.87;8.80;;;;;;;0.03;100.00;98664.41;1825808;77;21463;-62
2022/11/19 01:18:41;;;;;;;12.37;10.57;;;;;;;0.10;100.00;98656.74;1852342;77;21238;-62
2022/11/19 01:21:09;;;;;;;12.43;10.50;;;;;;;0.16;100.00;98655.92;1841404;77;20907;-63
2022/11/19 01:23:39;;;;;;;13.22;11.08;;;;;;;0.16;100.00;98654.59;1829712;77;20928;-62
2022/11/19 01:26:06;;;;;;;10.50;8.93;;;;;;;0.15;100.00;98649.51;1841058;77;21512;-61
2022/11/19 01:28:34;;;;;;;13.08;10.78;;;;;;;0.14;100.00;98644.76;1839147;77;22355;-62
2022/11/19 01:31:15;;;;;;;13.18;10.90;;;;;;;0.13;100.00;98644.45;1809257;77;21037;-63
2022/11/19 01:33:42;;;;;;;14.63;12.03;;;;;;;0.19;100.00;98648.09;1839664;77;20944;-64
2022/11/19 01:36:18;;;;;;;11.95;10.72;;;;;;;0.22;100.00;98641.88;1838218;77;21033;-63
2022/11/19 01:38:49;;;;;;;12.20;10.82;;;;;;;0.23;100.00;98641.38;1844149;77;20921;-63
2022/11/19 01:41:19;;;;;;;11.35;10.25;;;;;;;0.28;100.00;98635.76;1837282;77;21093;-63
2022/11/19 01:43:51;;;;;;;10.10;9.08;;;;;;;0.34;100.00;98636.73;1838497;77;20929;-63
2022/11/19 01:46:21;;;;;;;11.50;9.38;;;;;;;0.40;100.00;98626.12;1840947;77;20926;-62
2022/11/19 01:49:08;;;;;;;11.95;9.80;;;;;;;0.40;100.00;98622.16;1842335;77;20909;-63
2022/11/19 01:51:42;;;;;;;11.85;10.43;;;;;;;0.34;100.00;98615.06;1844371;77;21531;-62
2022/11/19 01:54:16;;;;;;;9.43;8.53;;;;;;;0.34;100.00;98620.35;1845248;77;21123;-62
2022/11/19 01:56:43;;;;;;;11.03;8.98;;;;;;;0.38;100.00;98608.33;1810286;77;21331;-75
2022/11/19 01:59:13;;;;;;;11.35;10.18;;;;;;;0.46;100.00;98613.91;1820503;77;20982;-74
2022/11/19 02:01:41;;;;;;;10.40;9.30;;;;;;;0.51;100.00;98610.62;1828346;77;21701;-76
2022/11/19 02:04:07;;;;;;;10.03;8.20;;;;;;;0.48;100.00;98608.41;1824285;78;21004;-71
2022/11/19 02:06:34;;;;;;;8.88;7.83;;;;;;;0.51;100.00;98607.98;1843872;77;21104;-70
2022/11/19 02:09:00;;;;;;;10.45;9.20;;;;;;;0.52;100.00;98605.13;1845610;77;20975;-71
2022/11/19 02:12:05;;;;;;;9.50;8.53;;;;;;;0.49;100.00;98603.39;1842457;77;21011;-73
2022/11/19 02:14:55;;;;;;;8.70;7.80;;;;;;;0.47;100.00;98595.70;1835821;77;20988;-72
2022/11/19 02:17:39;;;;;;;8.58;7.78;;;;;;;0.44;100.00;98584.20;1792055;78;22177;-71
2022/11/19 02:20:46;;;;;;;11.90;8.48;;;;;;;0.46;100.00;98580.03;1805646;79;21140;-72
2022/11/19 02:24:01;;;;;;;6.40;5.78;;;;;;;0.47;100.00;98576.37;1827906;78;21566;-69
2022/11/19 02:26:48;;;;;;;6.80;5.42;;;;;;;0.50;100.00;98569.31;1785321;79;21095;-76
2022/11/19 02:29:32;;;;;;;9.23;8.30;;;;;;;0.43;100.00;98570.16;1796679;79;21543;-71
2022/11/19 02:32:15;;;;;;;8.98;8.05;;;;;;;0.37;100.00;98562.28;1813756;78;21010;-65
2022/11/19 02:35:01;;;;;;;9.00;7.47;;;;;;;0.36;100.00;98565.95;1816052;78;20924;-72
2022/11/19 02:37:42;;;;;;;9.40;8.40;;;;;;;0.37;100.00;98564.42;1815339;78;21413;-73
2022/11/19 02:40:13;;;;;;;7.93;7.13;;;;;;;0.40;100.00;98567.95;1816249;79;21015;-73
2022/11/19 02:42:49;;;;;;;8.23;7.42;;;;;;;0.43;100.00;98564.88;1815287;78;20971;-73
2022/11/19 02:45:29;;;;;;;8.58;7.05;;;;;;;0.48;100.00;98562.13;1812259;79;21042;-71
2022/11/19 02:48:10;;;;;;;8.25;7.42;;;;;;;0.49;100.00;98560.57;1784803;80;21550;-75
2022/11/19 02:50:49;;;;;;;7.58;6.55;;;;;;;0.48;100.00;98564.77;1760936;81;21031;-74
2022/11/19 02:53:15;;;;;;;8.73;7.87;;;;;;;0.49;100.00;98565.86;1766711;80;21488;-74
2022/11/19 02:56:09;;;;;;;9.60;8.70;;;;;;;0.53;100.00;98558.33;1768137;80;21509;-69
2022/11/19 03:04:28;;;;;;;8.60;7.15;;;;;;;0.51;100.00;98561.19;1802368;79;21012;-70
2022/11/19 03:06:25;;;;;;;8.88;7.30;;;;;;;0.46;100.00;98563.65;1799956;79;20975;-70
2022/11/19 03:08:52;;;;;;;8.70;7.85;;;;;;;0.42;100.00;98564.59;1758627;81;20991;-69
2022/11/19 03:11:26;;;;;;;8.23;7.15;;;;;;;0.39;100.00;98564.19;1809525;78;21004;-68
2022/11/19 03:17:13;;;;;;;8.48;7.45;;;;;;;0.38;100.00;98562.05;1794422;78;21625;-67
2022/11/19 03:20:04;;;;;;;8.30;6.87;;;;;;;0.34;100.00;98559.53;1786086;80;20963;-65
2022/11/19 03:22:39;;;;;;;10.98;6.97;;;;;;;0.34;100.00;98560.86;1773922;80;21727;-67
2022/11/19 03:25:14;;;;;;;6.37;5.78;;;;;;;0.34;100.00;98555.56;1798951;79;20994;-67
2022/11/19 03:27:42;;;;;;;7.25;6.55;;;;;;;0.38;100.00;98550.69;1799659;79;21766;-70
2022/11/19 03:30:11;;;;;;;7.67;6.87;;;;;;;0.36;100.00;98548.25;1799227;79;20907;-67
2022/11/19 03:32:44;;;;;;;6.78;5.92;;;;;;;0.39;100.00;98535.91;1798680;79;20971;-69
2022/11/19 03:35:18;;;;;;;7.37;6.78;;;;;;;0.45;100.00;98531.61;1797893;79;21365;-70
2022/11/19 03:37:46;;;;;;;7.75;6.95;;;;;;;0.47;100.00;98533.55;1799850;79;21479;-66
2022/11/19 03:40:13;;;;;;;8.18;6.25;;;;;;;0.50;100.00;98525.67;1799984;79;21915;-70
2022/11/19 03:42:40;;;;;;;7.25;6.55;;;;;;;0.48;100.00;98530.39;1798581;79;21059;-68
2022/11/19 03:45:14;;;;;;;9.55;7.25;;;;;;;0.48;100.00;98528.53;1799035;79;21043;-70
2022/11/19 03:47:41;;;;;;;7.30;6.58;;;;;;;0.44;100.00;98529.47;1789040;79;21006;-68
2022/11/19 03:50:22;;;;;;;8.70;7.83;;;;;;;0.44;100.00;98518.89;1773550;79;21549;-69
2022/11/19 03:52:49;;;;;;;7.30;6.40;;;;;;;0.44;100.00;98519.41;1797905;79;21232;-76
2022/11/19 03:55:15;;;;;;;7.37;6.78;;;;;;;0.41;100.00;98516.69;1799727;79;20972;-71
2022/11/19 03:57:42;;;;;;;6.80;6.10;;;;;;;0.45;100.00;98513.09;1800108;79;21522;-72
2022/11/19 04:00:10;;;;;;;5.87;5.30;;;;;;;0.50;100.00;98514.59;1800356;79;21027;-70
2022/11/19 04:02:41;;;;;;;7.20;6.50;;;;;;;0.57;100.00;98506.63;1771394;79;21360;-72
2022/11/19 04:05:08;;;;;;;7.78;6.30;;;;;;;0.59;100.00;98508.02;1799555;79;21289;-72
2022/11/19 04:07:35;;;;;;;6.75;6.05;;;;;;;0.55;100.00;98498.89;1799383;79;20884;-70
2022/11/19 04:10:01;;;;;;;7.42;6.72;;;;;;;0.53;100.00;98504.89;1800438;79;21017;-73
2022/11/19 04:12:29;;;;;;;6.70;5.92;;;;;;;0.53;100.00;98498.82;1771740;79;21039;-68
2022/11/19 04:14:57;;;;;;;7.45;6.72;;;;;;;0.52;100.00;98490.07;1746336;79;21511;-70
2022/11/19 04:17:24;;;;;;;6.55;5.85;;;;;;;0.53;100.00;98479.77;1798765;78;21934;-70
2022/11/19 04:19:52;;;;;;;7.20;6.50;;;;;;;0.58;100.00;98469.86;1795945;79;21011;-72
2022/11/19 04:22:18;;;;;;;8.10;7.40;;;;;;;0.62;100.00;98471.08;1790002;79;21058;-74
2022/11/19 04:24:47;;;;;;;7.70;7.00;;;;;;;0.65;100.00;98465.34;1793991;80;20932;-73
2022/11/19 04:27:13;;;;;;;7.12;6.40;;;;;;;0.61;100.00;98465.48;1798366;79;20955;-74
2022/11/19 04:29:41;;;;;;;7.65;6.65;;;;;;;0.59;100.00;98457.75;1796287;79;20983;-72
2022/11/19 04:32:08;;;;;;;6.45;5.75;;;;;;;0.54;100.00;98456.77;1766843;79;21046;-71
2022/11/19 04:34:35;;;;;;;5.42;5.03;;;;;;;0.53;100.00;98443.28;1795473;79;21042;-72
2022/11/19 04:37:02;;;;;;;5.37;4.97;;;;;;;0.52;100.00;98437.68;1794923;79;21634;-68
2022/11/19 04:39:29;;;;;;;5.37;4.87;;;;;;;0.48;100.00;98439.92;1779375;80;21019;-70
2022/11/19 04:41:56;;;;;;;5.55;5.03;;;;;;;0.49;100.00;98433.62;1782973;79;21057;-70
2022/11/19 04:44:23;;;;;;;6.00;5.45;;;;;;;0.54;100.00;98432.97;1795440;79;21061;-70
2022/11/19 04:46:51;;;;;;;5.33;4.83;;;;;;;0.51;100.00;98417.03;1794761;79;21460;-78
2022/11/19 04:49:17;;;;;;;5.00;4.60;;;;;;;0.50;100.00;98416.73;1795536;79;21309;-70
2022/11/19 04:51:45;;;;;;;3.98;3.62;;;;;;;0.50;100.00;98429.95;1780174;79;21051;-71
2022/11/19 04:54:12;;;;;;;4.67;4.25;;;;;;;0.46;100.00;98442.00;1762337;79;21473;-70
2022/11/19 04:56:38;;;;;;;4.30;3.90;;;;;;;0.44;100.00;98456.75;1750689;79;21042;-75
2022/11/19 04:59:06;;;;;;;4.95;4.15;;;;;;;0.48;100.00;98478.27;1795274;79;21496;-83
2022/11/19 05:01:33;;;;;;;4.55;4.15;;;;;;;0.46;100.00;98473.73;1794556;79;21039;-71
2022/11/19 05:03:59;;;;;;;4.75;4.35;;;;;;;0.50;100.00;98455.59;1787579;78;21075;-68
2022/11/19 05:06:26;;;;;;;5.22;4.72;;;;;;;0.50;100.00;98464.34;1777203;79;20998;-72
2022/11/19 05:08:52;;;;;;;5.03;4.53;;;;;;;0.53;100.00;98473.70;1798735;79;20999;-68
2022/11/19 05:11:20;;;;;;;4.87;4.47;;;;;;;0.54;100.00;98473.97;1783802;79;21095;-67
2022/11/19 05:13:47;;;;;;;5.35;4.85;;;;;;;0.54;100.00;98473.45;1793762;79;20955;-69
2022/11/19 05:16:14;;;;;;;4.65;4.17;;;;;;;0.54;100.00;98472.64;1774773;78;21006;-68
2022/11/19 05:18:41;;;;;;;5.65;5.17;;;;;;;0.55;100.00;98472.95;1795415;79;21232;-68
2022/11/19 05:21:08;;;;;;;4.72;4.33;;;;;;;0.54;100.00;98473.97;1795320;79;21077;-68
2022/11/19 05:23:36;;;;;;;4.40;4.05;;;;;;;0.54;100.00;98469.48;1762250;79;21051;-67
2022/11/19 05:26:02;;;;;;;4.42;4.12;;;;;;;0.57;100.00;98469.59;1794886;79;21548;-67
2022/11/19 05:28:31;;;;;;;5.05;4.55;;;;;;;0.56;100.00;98469.28;1795874;79;21728;-66
2022/11/19 05:30:58;;;;;;;4.97;4.47;;;;;;;0.53;100.00;98477.13;1795529;79;21164;-67
2022/11/19 05:33:25;;;;;;;5.28;4.78;;;;;;;0.49;100.00;98474.61;1794838;79;21010;-67
2022/11/19 05:35:54;;;;;;;5.03;4.58;;;;;;;0.49;100.00;98471.16;1794923;79;21565;-68
2022/11/19 05:38:21;;;;;;;4.50;4.20;;;;;;;0.50;100.00;98472.27;1795468;79;20951;-68
2022/11/19 05:40:48;;;;;;;5.15;4.65;;;;;;;0.49;100.00;98471.97;1795457;79;20919;-66
2022/11/19 05:43:14;;;;;;;4.47;4.08;;;;;;;0.43;100.00;98474.95;1794299;79;21058;-68
2022/11/19 05:45:43;;;;;;;4.22;3.83;;;;;;;0.42;100.00;98483.13;1795004;79;20967;-69
2022/11/19 05:48:10;;;;;;;4.85;4.45;;;;;;;0.40;100.00;98475.91;1795375;79;21583;-67
2022/11/19 05:50:36;;;;;;;4.90;4.12;;;;;;;0.41;100.00;98475.70;1795809;79;21046;-68
2022/11/19 05:53:04;;;;;;;4.03;3.50;;;;;;;0.40;100.00;98479.36;1785794;79;21059;-68
2022/11/19 05:55:31;;;;;;;4.45;4.15;;;;;;;0.35;100.00;98478.38;1763010;81;21528;-66
2022/11/19 05:57:58;;;;;;;5.50;4.95;;;;;;;0.35;100.00;98473.91;1792166;79;21544;-67
2022/11/19 06:00:26;;;;;;;4.97;4.55;;;;;;;0.33;100.00;98482.58;1795624;79;21091;-69
2022/11/19 06:02:52;;;;;;;5.78;5.28;;;;;;;0.36;100.00;98481.33;1776150;79;21098;-70
2022/11/19 06:05:19;;;;;;;5.12;4.70;;;;;;;0.27;100.00;98486.06;1795339;79;21016;-69
2022/11/19 06:07:45;;;;;;;5.55;5.05;;;;;;;0.20;100.00;98486.61;1795593;79;21094;-71
2022/11/19 06:10:11;;;;;;;5.55;5.05;;;;;;;0.21;100.00;98490.06;1795699;79;21049;-69
2022/11/19 06:12:38;;;;;;;6.00;5.00;;;;;;;0.26;100.00;98493.70;1793070;79;21018;-71
2022/11/19 06:15:07;;;;;;;5.97;5.30;;;;;;;0.33;100.00;98498.45;1784443;79;21093;-72
2022/11/19 06:17:35;;;;;;;7.22;6.58;;;;;;;0.43;100.00;98501.40;1795374;79;21324;-70
2022/11/19 06:20:01;;;;;;;7.28;6.58;;;;;;;0.43;100.00;98500.62;1784309;79;21058;-71
2022/11/19 06:22:28;;;;;;;6.33;5.33;;;;;;;0.46;100.00;98500.69;1782924;79;21007;-70
2022/11/19 06:24:54;;;;;;;6.15;5.55;;;;;;;0.47;100.00;98500.48;1796857;79;21037;-70
2022/11/19 06:27:21;;;;;;;7.85;7.05;;;;;;;0.47;100.00;98502.31;1805203;79;21002;-70
2022/11/19 06:29:49;;;;;;;8.70;6.55;;;;;;;0.49;100.00;98512.96;1755938;80;20936;-70
2022/11/19 06:32:16;;;;;;;7.60;6.80;;;;;;;0.50;100.00;98513.78;1791259;79;22521;-71
2022/11/19 06:34:44;;;;;;;8.35;7.47;;;;;;;0.50;100.00;98517.23;1797655;79;20962;-70
2022/11/19 06:37:10;;;;;;;6.40;5.80;;;;;;;0.49;100.00;98519.58;1792095;79;21031;-71
2022/11/19 06:39:38;;;;;;;7.75;7.05;;;;;;;0.45;100.00;98514.42;1782544;79;20968;-67
2022/11/19 06:44:50;;;;;;;13.75;10.25;;;;;;;0.54;100.00;98522.39;1813370;78;21160;-67
2022/11/19 06:47:17;;;;;;;12.93;7.67;;;;;;;0.60;100.00;98530.80;1785733;79;20959;-67
2022/11/19 06:49:44;;;;;;;8.05;7.20;;;;;;;0.65;100.00;98530.97;1778911;80;20905;-67
2022/11/19 06:52:11;;;;;;;10.70;8.55;;;;;;;0.68;100.00;98531.85;1779934;80;20998;-67
2022/11/19 06:54:37;;;;;;;10.58;7.58;;;;;;;0.72;100.00;98536.22;1784637;79;21042;-68
2022/11/19 06:57:04;;;;;;;8.10;6.15;;;;;;;0.70;100.00;98544.37;1769026;80;21141;-67
2022/11/19 06:59:33;;;;;;;6.58;5.65;;;;;;;0.70;100.00;98536.43;1774990;80;21015;-67
2022/11/19 07:02:00;;;;;;;8.10;7.08;;;;;;;0.73;100.00;98541.79;1806867;79;21015;-67
2022/11/19 07:04:26;;;;;;;10.10;8.78;;;;;;;0.74;100.00;98544.73;1794254;78;21010;-69
2022/11/19 07:06:53;;;;;;;10.38;8.50;;;;;;;0.75;100.00;98542.40;1779683;80;20993;-66
2022/11/19 07:09:21;;;;;;;9.80;7.47;;;;;;;0.74;100.00;98540.27;1777789;80;21228;-66
2022/11/19 07:11:48;;;;;;;8.98;7.67;;;;;;;0.71;100.00;98545.99;1779048;80;21059;-67
2022/11/19 07:14:14;;;;;;;9.03;7.60;;;;;;;0.71;100.00;98553.12;1783362;80;21113;-69
2022/11/19 07:16:41;;;;;;;8.63;7.90;;;;;;;0.74;100.00;98548.71;1768779;80;20999;-67
2022/11/19 07:19:08;;;;;;;8.48;7.60;;;;;;;0.75;100.00;98553.80;1762162;80;21028;-67
2022/11/19 07:21:35;;;;;;;8.65;7.40;;;;;;;0.81;100.00;98556.09;1732460;80;21307;-68
2022/11/19 07:24:05;;;;;;;9.75;8.15;;;;;;;0.87;100.00;98552.06;1793081;80;20960;-77
2022/11/19 07:26:33;;;;;;;9.30;7.97;;;;;;;0.88;100.00;98558.17;1781723;79;21564;-72
2022/11/19 07:29:01;;;;;;;7.45;6.70;;;;;;;0.87;100.00;98553.89;1782684;79;21629;-70
2022/11/19 07:31:28;;;;;;;7.80;7.00;;;;;;;0.84;100.00;98564.92;1788945;79;21043;-74
2022/11/19 07:33:55;;;;;;;6.03;5.37;;;;;;;0.75;100.00;98562.24;1805613;77;21204;-72
2022/11/19 07:36:22;;;;;;;8.73;7.80;;;;;;;0.76;100.00;98571.81;1789131;78;21066;-68
2022/11/19 07:38:51;;;;;;;8.23;6.40;;;;;;;0.77;100.00;98565.47;1785072;80;21015;-69
2022/11/19 07:44:05;;;;;;;7.00;6.30;;;;;;;0.77;100.00;98571.57;1786473;78;21008;-68
2022/11/19 07:46:32;;;;;;;6.47;5.92;;;;;;;0.79;100.00;98572.69;1804321;77;21054;-69
2022/11/19 07:48:58;;;;;;;6.92;6.22;;;;;;;0.81;100.00;98583.89;1804186;78;20963;-68
2022/11/19 07:51:25;;;;;;;6.70;6.05;;;;;;;0.76;100.00;98580.56;1783092;78;21543;-69
2022/11/19 07:53:53;;;;;;;6.60;6.00;;;;;;;0.77;100.00;98582.67;1797953;78;21539;-68
2022/11/19 07:56:19;;;;;;;6.30;5.55;;;;;;;0.82;100.00;98585.48;1795321;77;21489;-69
2022/11/19 07:58:46;;;;;;;6.72;6.03;;;;;;;0.88;100.00;98591.25;1749524;78;21488;-70
2022/11/19 08:01:20;;;;;;;7.33;6.62;;;;;;;0.86;100.00;98594.10;1778241;80;21983;-70
2022/11/19 08:03:48;;;;;;;6.92;6.33;;;;;;;0.77;100.00;98595.90;1796066;79;22225;-69
2022/11/19 08:06:16;;;;;;;7.03;6.33;;;;;;;0.78;100.00;98597.02;1784726;79;21095;-69
2022/11/19 08:08:43;;;;;;;7.28;6.67;;;;;;;0.79;100.00;98597.83;1795652;79;21063;-70
2022/11/19 08:11:11;;;;;;;7.10;6.40;;;;;;;0.81;100.00;98606.37;1794029;79;22319;-68
2022/11/19 08:13:38;;;;;;;10.70;8.08;;;;;;;0.82;100.00;98603.50;1778269;79;21709;-69
2022/11/19 08:16:12;;;;;;;8.35;7.55;;;;;;;0.78;100.00;98607.60;1794491;79;21071;-69
2022/11/19 08:18:39;;;;;;;7.12;6.42;;;;;;;0.69;100.00;98614.69;1797486;78;21052;-69
2022/11/19 08:21:09;;;;;;;8.05;6.55;;;;;;;0.70;100.00;98613.66;1780208;80;20980;-69
2022/11/19 08:23:38;;;;;;;7.00;6.35;;;;;;;0.62;100.00;98616.57;1792554;79;21683;-68
2022/11/19 08:26:08;;;;;;;7.92;7.12;;;;;;;0.59;100.00;98619.63;1792973;79;21535;-67
2022/11/19 08:28:35;;;;;;;7.90;7.20;;;;;;;0.61;100.00;98621.05;1795391;79;21001;-68
2022/11/19 08:31:07;;;;;;;8.20;7.45;;;;;;;0.55;100.00;98628.50;1790032;79;20968;-69
2022/11/19 08:33:34;;;;;;;9.38;7.58;;;;;;;0.56;100.00;98632.77;1775282;80;21050;-70
2022/11/19 08:36:01;;;;;;;9.55;7.53;;;;;;;0.60;100.00;98635.30;1811633;78;21142;-75
2022/11/19 08:38:28;;;;;;;8.40;7.17;;;;;;;0.53;100.00;98635.04;1811362;78;21004;-74
2022/11/19 08:42:58;;;;;;;7.03;6.33;;;;;;;0.53;100.00;98635.82;1807312;78;21516;-73
2022/11/19 08:43:25;;;;;;;9.25;7.78;;;;;;;0.57;100.00;98633.08;1780285;80;21023;-75
2022/11/19 08:45:55;;;;;;;8.45;7.60;;;;;;;0.58;100.00;98642.61;1812139;78;21026;-73
2022/11/19 08:48:24;;;;;;;7.62;6.95;;;;;;;0.50;100.00;98648.67;1823915;78;21343;-72
2022/11/19 08:50:52;;;;;;;9.43;7.40;;;;;;;0.51;100.00;98655.59;1786813;79;21060;-72
2022/11/19 08:53:19;;;;;;;10.38;8.25;;;;;;;0.52;100.00;98662.00;1799964;78;21026;-72
2022/11/19 08:55:51;;;;;;;8.68;7.78;;;;;;;0.50;100.00;98656.09;1763315;80;22162;-72
2022/11/19 08:58:18;;;;;;;10.35;8.53;;;;;;;0.52;100.00;98677.87;1818276;77;20976;-70
2022/11/19 09:00:47;;;;;;;10.98;9.58;;;;;;;0.55;100.00;98682.73;1819804;77;21050;-70
2022/11/19 09:03:15;;;;;;;8.45;7.55;;;;;;;0.64;100.00;98676.17;1806624;77;20923;-69
2022/11/19 09:05:42;;;;;;;11.15;9.25;;;;;;;0.76;100.00;98686.41;1792415;78;21112;-70
2022/11/19 09:08:08;;;;;;;12.95;9.10;;;;;;;0.84;100.00;98687.47;1782412;80;22220;-69
2022/11/19 09:10:36;;;;;;;14.43;11.50;;;;;;;0.91;100.00;98690.60;1782619;78;21066;-71
2022/11/19 09:13:04;;;;;;;14.65;11.85;;;;;;;0.96;100.00;98689.45;1783730;78;20991;-69
2022/11/19 09:15:31;;;;;;;17.60;14.38;;;;;;;0.92;100.00;98694.84;1812045;79;21577;-70
2022/11/19 09:18:00;;;;;;;10.55;8.88;;;;;;;0.91;100.00;98696.71;1815308;79;21059;-70
2022/11/19 09:20:27;;;;;;;12.47;11.03;;;;;;;0.96;100.00;98705.34;1816898;77;21516;-69
2022/11/19 09:22:53;;;;;;;8.90;7.90;;;;;;;0.99;100.00;98706.22;1817591;78;21067;-70
2022/11/19 09:25:20;;;;;;;12.25;9.25;;;;;;;1.04;100.00;98707.72;1818037;78;21539;-70
2022/11/19 09:27:47;;;;;;;13.03;11.55;;;;;;;0.96;100.00;98715.38;1818710;78;20972;-75
2022/11/19 09:30:14;;;;;;;10.32;9.35;;;;;;;0.95;100.00;98716.44;1816854;77;20988;-69
2022/11/19 09:32:41;;;;;;;8.03;7.33;;;;;;;1.00;100.00;98727.70;1791889;78;20960;-69
2022/11/19 09:35:09;;;;;;;7.50;6.80;;;;;;;1.08;100.00;98736.20;1799822;78;21504;-70
2022/11/19 09:37:35;;;;;;;8.48;7.67;;;;;;;1.14;100.00;98741.17;1788188;80;21207;-69
2022/11/19 09:40:07;;;;;;;8.68;7.78;;;;;;;1.11;100.00;98742.39;1779362;79;21046;-68
2022/11/19 09:42:51;;;;;;;11.08;9.98;;;;;;;1.08;100.00;98736.72;1795162;79;20928;-69
2022/11/19 09:45:39;;;;;;;8.20;7.50;;;;;;;1.06;100.00;98738.24;1787210;78;20997;-69
2022/11/19 09:48:21;;;;;;;9.20;8.30;;;;;;;1.07;100.00;98738.55;1805127;77;21120;-72
2022/11/19 09:50:58;;;;;;;8.73;7.80;;;;;;;1.07;100.00;98735.09;1809232;77;20896;-67
2022/11/19 09:53:29;;;;;;;10.35;9.35;;;;;;;1.10;100.00;98742.63;1818108;77;20939;-71
2022/11/19 09:55:55;;;;;;;8.13;7.42;;;;;;;1.16;100.00;98747.05;1804910;77;21546;-70
2022/11/19 09:58:38;;;;;;;10.32;9.23;;;;;;;1.24;100.00;98752.11;1793831;78;21558;-71
2022/11/19 10:01:05;;;;;;;11.50;10.30;;;;;;;1.20;100.00;98750.92;1827414;77;20996;-71
2022/11/19 10:03:32;;;;;;;9.43;8.33;;;;;;;1.14;100.00;98765.81;1785835;78;21560;-72
2022/11/19 10:06:10;;;;;;;10.10;9.28;;;;;;;1.11;100.00;98784.75;1799454;78;21515;-70
2022/11/19 10:09:10;;;;;;;11.90;9.08;;;;;;;1.10;100.00;98781.02;1792552;78;21099;-69
2022/11/19 10:12:08;;;;;;;11.22;9.60;;;;;;;1.01;100.00;98781.74;1768186;80;21836;-69
2022/11/19 10:15:10;;;;;;;10.30;9.10;;;;;;;1.00;100.00;98785.44;1738828;81;21088;-69
2022/11/19 10:17:51;;;;;;;11.10;8.73;;;;;;;0.94;100.00;98784.95;1720808;82;21681;-67
2022/11/19 10:20:26;;;;;;;9.50;8.58;;;;;;;0.90;100.00;98774.48;1726785;82;21051;-69
2022/11/19 10:23:17;;;;;;;10.03;9.03;;;;;;;0.87;100.00;98782.31;1730561;82;20971;-69
2022/11/19 10:25:46;;;;;;;9.65;8.75;;;;;;;0.90;100.00;98787.72;1729010;81;20944;-69
2022/11/19 10:28:29;;;;;;;9.90;8.90;;;;;;;0.89;100.00;98788.73;1720478;82;21051;-69
2022/11/19 10:31:07;;;;;;;12.50;9.70;;;;;;;0.87;100.00;98786.80;1730054;82;21055;-72
2022/11/19 10:33:45;;;;;;;9.60;8.70;;;;;;;0.85;100.00;98800.26;1729652;82;21634;-72
2022/11/19 10:36:20;;;;;;;10.08;9.20;;;;;;;0.84;100.00;98802.59;1715460;81;21067;-70
2022/11/19 10:39:17;;;;;;;12.13;8.70;;;;;;;0.80;100.00;98797.42;1732828;81;21059;-70
2022/11/19 10:42:24;;;;;;;11.20;10.00;;;;;;;0.84;100.00;98801.78;1764202;79;21044;-71
2022/11/19 10:45:08;;;;;;;8.95;8.05;;;;;;;0.92;100.00;98800.72;1715955;82;21378;-68
2022/11/19 10:47:46;;;;;;;8.65;7.40;;;;;;;0.98;100.00;98799.38;1758864;79;21039;-71
2022/11/19 10:50:22;;;;;;;10.68;9.60;;;;;;;1.01;100.00;98796.84;1731118;81;21064;-72
2022/11/19 10:53:03;;;;;;;9.70;8.73;;;;;;;0.97;100.00;98810.17;1742714;81;20999;-69
2022/11/19 10:55:39;;;;;;;8.43;7.40;;;;;;;0.98;100.00;98820.56;1764175;79;21057;-69
2022/11/19 10:58:28;;;;;;;8.10;7.37;;;;;;;1.02;100.00;98832.34;1725734;83;21783;-69
2022/11/19 11:00:58;;;;;;;8.38;7.50;;;;;;;1.04;100.00;98829.00;1746805;80;20917;-70
2022/11/19 11:03:39;;;;;;;8.65;7.85;;;;;;;1.05;100.00;98831.95;1744943;80;21492;-70
2022/11/19 11:06:08;;;;;;;8.95;8.05;;;;;;;1.06;100.00;98841.50;1749835;80;21016;-76
2022/11/19 11:08:54;;;;;;;7.62;6.92;;;;;;;1.07;100.00;98859.52;1748183;80;21012;-72
2022/11/19 11:14:50;;;;;;;8.28;7.47;;;;;;;1.06;100.00;98868.48;1809298;77;20983;-73
2022/11/19 11:16:46;;;;;;;8.43;6.58;;;;;;;1.03;100.00;98882.14;1699854;80;21011;-71
2022/11/19 11:19:17;;;;;;;9.38;8.40;;;;;;;1.02;100.00;98906.98;1808148;77;22206;-70
2022/11/19 11:21:46;;;;;;;8.78;7.67;;;;;;;0.97;100.00;98912.09;1795135;78;21046;-69
2022/11/19 11:24:12;;;;;;;9.60;8.60;;;;;;;0.94;100.00;98919.95;1788473;77;21626;-71
2022/11/19 11:26:39;;;;;;;11.33;9.10;;;;;;;0.92;100.00;98945.80;1799976;78;21586;-70
2022/11/19 11:29:15;;;;;;;9.15;8.10;;;;;;;0.89;100.00;98951.52;1797031;78;21702;-71
2022/11/19 11:31:44;;;;;;;8.78;7.87;;;;;;;0.86;100.00;98939.48;1809722;79;21035;-69
2022/11/19 11:34:37;;;;;;;10.05;8.33;;;;;;;0.84;100.00;98935.44;1811481;78;21073;-73
2022/11/19 11:37:05;;;;;;;8.85;8.10;;;;;;;0.83;100.00;98937.27;1810335;78;22559;-70
2022/11/19 11:39:37;;;;;;;9.58;8.65;;;;;;;0.83;100.00;98940.42;1794133;78;21535;-71
2022/11/19 11:42:04;;;;;;;9.43;8.43;;;;;;;0.83;100.00;98949.68;1812431;79;21035;-72
2022/11/19 11:44:36;;;;;;;8.93;7.95;;;;;;;0.81;100.00;98967.11;1809377;78;21556;-71
2022/11/19 11:47:17;;;;;;;8.97;7.77;;;;;;;0.81;100.00;98962.32;1813729;77;21020;-71
2022/11/19 11:49:46;;;;;;;8.18;7.33;;;;;;;0.81;100.00;98955.70;1807684;78;21113;-73
2022/11/19 11:52:21;;;;;;;9.38;8.50;;;;;;;0.82;100.00;98964.74;1805571;78;21535;-68
2022/11/19 11:55:02;;;;;;;11.55;8.55;;;;;;;0.85;100.00;98968.83;1808652;78;21000;-68
2022/11/19 11:57:35;;;;;;;10.00;9.00;;;;;;;0.85;100.00;98963.53;1803371;78;21090;-69
2022/11/19 12:00:25;;;;;;;9.85;8.93;;;;;;;0.85;100.00;98997.44;1811280;77;21524;-69
2022/11/19 12:03:06;;;;;;;9.85;8.85;;;;;;;0.83;100.00;99011.38;1799271;78;21442;-70
2022/11/19 12:05:51;;;;;;;9.45;8.48;;;;;;;0.78;100.00;99036.30;1806587;78;21619;-69
2022/11/19 12:08:54;;;;;;;8.13;7.15;;;;;;;0.75;100.00;99031.94;1810823;79;21005;-75